createdAt,value
2019-03-05T00:00:45.508Z,1.10
2019-03-05T00:03:12.189Z,1.10
2019-03-05T00:05:39.297Z,1.10
2019-03-05T00:08:06.141Z,1.00
2019-03-05T00:10:32.678Z,1.00
2019-03-05T00:12:59.626Z,1.00
2019-03-05T00:15:28.527Z,1.00
2019-03-05T00:17:55.571Z,0.90
2019-03-05T00:20:22.272Z,0.90
2019-03-05T00:22:49.257Z,0.80
2019-03-05T00:25:20.968Z,0.80
2019-03-05T00:27:51.143Z,0.80
2019-03-05T00:30:27.903Z,0.80
2019-03-05T00:33:19.643Z,0.80
2019-03-05T00:35:55.924Z,0.80
2019-03-05T00:38:53.866Z,0.80
2019-03-05T00:41:48.444Z,0.80
2019-03-05T00:44:30.772Z,0.80
2019-03-05T00:47:18.299Z,0.80
2019-03-05T00:49:51.286Z,0.80
2019-03-05T00:52:33.692Z,0.80
2019-03-05T00:55:07.191Z,0.80
2019-03-05T00:57:46.291Z,0.80
2019-03-05T01:00:37.519Z,0.70
2019-03-05T01:03:35.213Z,0.70
2019-03-05T01:06:15.875Z,0.70
2019-03-05T01:08:42.919Z,0.70
2019-03-05T01:11:09.425Z,0.70
2019-03-05T01:13:36.314Z,0.80
2019-03-05T01:16:04.812Z,0.80
2019-03-05T01:18:31.739Z,0.80
2019-03-05T01:20:58.355Z,0.90
2019-03-05T01:23:25.232Z,0.90
2019-03-05T01:25:52.160Z,0.90
2019-03-05T01:28:19.208Z,0.80
2019-03-05T01:31:04.254Z,0.80
2019-03-05T01:33:33.072Z,0.70
2019-03-05T01:36:01.678Z,0.70
2019-03-05T01:38:30.092Z,0.60
2019-03-05T01:40:58.208Z,0.60
2019-03-05T01:43:25.051Z,0.50
2019-03-05T01:45:51.868Z,0.50
2019-03-05T01:48:18.493Z,0.50
2019-03-05T01:50:45.371Z,0.50
2019-03-05T01:53:12.107Z,0.50
2019-03-05T01:55:40.337Z,0.50
2019-03-05T01:58:07.134Z,0.50
2019-03-05T02:00:34.288Z,0.50
2019-03-05T02:03:00.823Z,0.50
2019-03-05T02:05:27.668Z,0.50
2019-03-05T02:07:54.385Z,0.50
2019-03-05T02:10:21.526Z,0.50
2019-03-05T02:12:48.512Z,0.50
2019-03-05T02:15:15.043Z,0.40
2019-03-05T02:17:42.101Z,0.50
2019-03-05T02:20:12.212Z,0.40
2019-03-05T02:22:38.850Z,0.40
2019-03-05T02:25:14.827Z,0.40
2019-03-05T02:27:57.729Z,0.40
2019-03-05T02:31:00.512Z,0.30
2019-03-05T02:33:59.841Z,0.30
2019-03-05T02:36:54.061Z,0.30
2019-03-05T02:39:42.448Z,0.30
2019-03-05T02:42:15.484Z,0.30
2019-03-05T02:44:52.216Z,0.30
2019-03-05T02:47:34.608Z,0.30
2019-03-05T02:50:11.002Z,0.30
2019-03-05T02:52:49.796Z,0.30
2019-03-05T02:55:48.930Z,0.30
2019-03-05T02:58:15.019Z,0.30
2019-03-05T03:00:47.118Z,0.30
2019-03-05T03:03:15.552Z,0.30
2019-03-05T03:05:45.095Z,0.40
2019-03-05T03:08:11.692Z,0.30
2019-03-05T03:10:38.297Z,0.30
2019-03-05T03:13:05.328Z,0.40
2019-03-05T03:15:32.234Z,0.40
2019-03-05T03:17:59.111Z,0.40
2019-03-05T03:20:25.758Z,0.40
2019-03-05T03:22:52.349Z,0.40
2019-03-05T03:25:19.455Z,0.40
2019-03-05T03:27:46.085Z,0.40
2019-03-05T03:30:17.903Z,0.40
2019-03-05T03:32:44.408Z,0.40
2019-03-05T03:35:13.339Z,0.40
2019-03-05T03:37:39.987Z,0.30
2019-03-05T03:40:12.545Z,0.30
2019-03-05T03:42:39.525Z,0.40
2019-03-05T03:45:12.418Z,0.40
2019-03-05T03:47:39.670Z,0.30
2019-03-05T03:50:07.878Z,0.40
2019-03-05T03:52:34.504Z,0.40
2019-03-05T03:55:01.329Z,0.30
2019-03-05T03:57:28.263Z,0.30
2019-03-05T03:59:55.212Z,0.30
2019-03-05T04:02:22.163Z,0.30
2019-03-05T04:04:49.106Z,0.30
2019-03-05T04:07:16.361Z,0.30
2019-03-05T04:09:42.971Z,0.20
2019-03-05T04:12:09.839Z,0.30
2019-03-05T04:14:36.480Z,0.20
2019-03-05T04:17:03.296Z,0.20
2019-03-05T04:19:31.069Z,0.20
2019-03-05T04:21:57.674Z,0.20
2019-03-05T04:24:24.569Z,0.20
2019-03-05T04:26:51.230Z,0.10
2019-03-05T04:29:18.258Z,0.10
2019-03-05T04:31:44.851Z,0.10
2019-03-05T04:34:11.453Z,0.10
2019-03-05T04:36:38.408Z,0.00
2019-03-05T04:39:08.516Z,0.10
2019-03-05T04:41:35.339Z,0.00
2019-03-05T04:44:01.972Z,0.10
2019-03-05T04:46:30.976Z,0.10
2019-03-05T04:49:02.740Z,0.10
2019-03-05T04:51:31.140Z,0.10
2019-03-05T04:53:57.630Z,0.10
2019-03-05T04:56:24.491Z,0.10
2019-03-05T04:58:51.437Z,0.10
2019-03-05T05:01:18.085Z,0.10
2019-03-05T05:03:44.710Z,0.10
2019-03-05T05:06:11.865Z,0.10
2019-03-05T05:11:11.876Z,0.00
2019-03-05T05:13:38.850Z,0.00
2019-03-05T05:16:05.652Z,0.00
2019-03-05T05:18:32.288Z,0.00
2019-03-05T05:20:59.273Z,0.00
2019-03-05T05:23:25.865Z,0.00
2019-03-05T05:25:53.059Z,-0.10
2019-03-05T05:28:19.667Z,-0.10
2019-03-05T05:30:46.544Z,-0.10
2019-03-05T05:33:13.492Z,-0.10
2019-03-05T05:35:40.752Z,-0.10
2019-03-05T05:38:07.688Z,-0.10
2019-03-05T05:40:42.975Z,0.00
2019-03-05T05:43:16.019Z,0.00
2019-03-05T05:45:48.697Z,-0.10
2019-03-05T05:48:15.458Z,-0.10
2019-03-05T05:50:42.280Z,-0.10
2019-03-05T05:53:08.923Z,-0.20
2019-03-05T05:55:36.080Z,-0.20
2019-03-05T05:58:04.556Z,-0.20
2019-03-05T06:00:31.879Z,-0.20
2019-03-05T06:02:58.492Z,-0.30
2019-03-05T06:05:25.268Z,-0.30
2019-03-05T06:07:51.992Z,-0.30
2019-03-05T06:10:18.989Z,-0.30
2019-03-05T06:12:45.825Z,-0.30
2019-03-05T06:15:13.767Z,-0.30
2019-03-05T06:17:40.411Z,-0.30
2019-03-05T06:20:12.594Z,-0.40
2019-03-05T06:22:39.337Z,-0.40
2019-03-05T06:25:07.962Z,-0.30
2019-03-05T06:27:34.877Z,-0.30
2019-03-05T06:30:01.922Z,-0.40
2019-03-05T06:32:28.778Z,-0.40
2019-03-05T06:34:55.418Z,-0.40
2019-03-05T06:37:22.223Z,-0.40
2019-03-05T06:39:49.091Z,-0.40
2019-03-05T06:42:15.749Z,-0.40
2019-03-05T06:44:42.683Z,-0.40
2019-03-05T06:47:09.934Z,-0.40
2019-03-05T06:49:36.883Z,-0.40
2019-03-05T06:52:03.481Z,-0.40
2019-03-05T06:54:30.467Z,-0.40
2019-03-05T06:56:57.624Z,-0.40
2019-03-05T06:59:24.561Z,-0.40
2019-03-05T07:01:51.511Z,-0.40
2019-03-05T07:04:18.151Z,-0.40
2019-03-05T07:06:50.775Z,-0.40
2019-03-05T07:09:39.587Z,-0.40
2019-03-05T07:12:21.804Z,-0.40
2019-03-05T07:15:20.844Z,-0.50
2019-03-05T07:17:57.255Z,-0.50
2019-03-05T07:20:33.830Z,-0.30
2019-03-05T07:23:10.339Z,0.20
2019-03-05T07:25:37.001Z,0.60
2019-03-05T07:28:03.982Z,0.80
2019-03-05T07:30:30.696Z,0.80
2019-03-05T07:32:57.669Z,0.90
2019-03-05T07:35:25.283Z,1.00
2019-03-05T07:37:51.883Z,1.00
2019-03-05T07:40:18.830Z,1.10
2019-03-05T07:42:45.773Z,1.10
2019-03-05T07:45:13.834Z,0.80
2019-03-05T07:47:40.454Z,0.70
2019-03-05T07:50:09.673Z,0.60
2019-03-05T07:52:36.718Z,0.50
2019-03-05T07:55:13.654Z,0.60
2019-03-05T07:57:36.407Z,0.60
2019-03-05T08:00:10.299Z,0.60
2019-03-05T08:02:36.893Z,0.60
2019-03-05T08:05:04.974Z,0.60
2019-03-05T08:07:31.668Z,0.70
2019-03-05T08:10:02.139Z,1.20
2019-03-05T08:12:53.963Z,1.80
2019-03-05T08:15:34.934Z,2.50
2019-03-05T08:18:01.897Z,3.70
2019-03-05T08:20:28.738Z,4.30
2019-03-05T08:22:55.344Z,5.20
2019-03-05T08:25:21.996Z,5.70
2019-03-05T08:27:50.631Z,6.10
2019-03-05T08:30:23.817Z,6.20
2019-03-05T08:32:50.691Z,6.90
2019-03-05T08:35:17.259Z,7.10
2019-03-05T08:37:44.119Z,7.10
2019-03-05T08:40:12.962Z,7.10
2019-03-05T08:42:39.566Z,7.50
2019-03-05T08:45:13.690Z,7.40
2019-03-05T08:47:40.707Z,7.20
2019-03-05T08:50:12.675Z,7.50
2019-03-05T08:52:39.615Z,7.90
2019-03-05T08:55:09.135Z,8.30
2019-03-05T08:57:35.663Z,8.80
2019-03-05T09:00:05.881Z,9.50
2019-03-05T09:02:32.524Z,9.80
2019-03-05T09:04:59.463Z,10.00
2019-03-05T09:07:26.304Z,10.10
2019-03-05T09:09:52.857Z,10.90
2019-03-05T09:12:19.532Z,10.70
2019-03-05T09:14:46.174Z,10.90
2019-03-05T09:17:13.423Z,11.30
2019-03-05T09:19:40.318Z,11.60
2019-03-05T09:22:07.273Z,11.30
2019-03-05T09:24:34.213Z,10.90
2019-03-05T09:27:00.866Z,11.10
2019-03-05T09:29:27.911Z,11.40
2019-03-05T09:31:54.526Z,11.30
2019-03-05T09:34:21.482Z,11.50
2019-03-05T09:36:51.252Z,11.10
2019-03-05T09:39:16.831Z,11.20
2019-03-05T09:41:44.078Z,11.60
2019-03-05T09:44:10.902Z,12.20
2019-03-05T09:46:37.556Z,12.30
2019-03-05T09:49:04.387Z,12.40
2019-03-05T09:51:31.282Z,12.60
2019-03-05T09:53:58.297Z,12.80
2019-03-05T09:56:25.242Z,12.80
2019-03-05T09:58:52.283Z,12.90
2019-03-05T10:01:18.890Z,12.90
2019-03-05T10:03:45.490Z,12.70
2019-03-05T10:06:12.130Z,13.20
2019-03-05T10:08:39.151Z,13.40
2019-03-05T10:11:05.688Z,13.50
2019-03-05T10:13:32.842Z,13.90
2019-03-05T10:15:59.457Z,13.80
2019-03-05T10:18:26.305Z,14.30
2019-03-05T10:20:53.178Z,13.70
2019-03-05T10:23:19.746Z,13.70
2019-03-05T10:25:46.738Z,13.10
2019-03-05T10:28:13.476Z,12.80
2019-03-05T10:30:42.596Z,14.30
2019-03-05T10:33:12.863Z,14.10
2019-03-05T10:35:39.737Z,13.40
2019-03-05T10:38:08.524Z,13.60
2019-03-05T10:40:45.106Z,14.50
2019-03-05T10:43:13.509Z,14.00
2019-03-05T10:45:42.518Z,14.60
2019-03-05T10:48:09.438Z,14.00
2019-03-05T10:50:36.051Z,14.20
2019-03-05T10:53:03.425Z,14.00
2019-03-05T10:55:30.466Z,14.10
2019-03-05T10:57:57.084Z,14.40
2019-03-05T11:00:34.401Z,15.00
2019-03-05T11:03:01.543Z,14.70
2019-03-05T11:05:31.374Z,14.70
2019-03-05T11:07:58.512Z,14.60
2019-03-05T11:10:28.123Z,13.90
2019-03-05T11:12:55.066Z,14.10
2019-03-05T11:15:30.633Z,14.20
2019-03-05T11:17:57.619Z,13.70
2019-03-05T11:20:44.178Z,13.30
2019-03-05T11:23:11.828Z,12.80
2019-03-05T11:25:38.975Z,12.80
2019-03-05T11:28:05.631Z,13.20
2019-03-05T11:30:37.699Z,13.80
2019-03-05T11:33:04.727Z,13.80
2019-03-05T11:35:32.809Z,13.50
2019-03-05T11:37:59.462Z,13.20
2019-03-05T11:40:26.394Z,13.20
2019-03-05T11:42:53.434Z,12.60
2019-03-05T11:45:25.234Z,12.60
2019-03-05T11:47:52.174Z,12.50
2019-03-05T11:50:19.086Z,12.70
2019-03-05T11:52:45.698Z,12.20
2019-03-05T11:55:24.223Z,11.90
2019-03-05T11:57:50.833Z,12.10
2019-03-05T12:00:27.757Z,12.50
2019-03-05T12:02:54.274Z,12.90
2019-03-05T12:05:20.879Z,13.00
2019-03-05T12:07:47.891Z,13.10
2019-03-05T12:10:20.066Z,13.10
2019-03-05T12:12:46.771Z,13.20
2019-03-05T12:15:16.461Z,13.20
2019-03-05T12:17:43.462Z,13.30
2019-03-05T12:20:11.906Z,12.80
2019-03-05T12:22:38.887Z,12.20
2019-03-05T12:25:09.510Z,11.80
2019-03-05T12:27:39.080Z,11.10
2019-03-05T12:30:09.290Z,10.60
2019-03-05T12:32:35.824Z,10.90
2019-03-05T12:35:03.438Z,11.50
2019-03-05T12:37:31.211Z,11.50
2019-03-05T12:39:57.859Z,11.60
2019-03-05T12:42:24.750Z,11.90
2019-03-05T12:44:51.526Z,12.40
2019-03-05T12:47:18.077Z,12.80
2019-03-05T12:49:44.680Z,13.40
2019-03-05T12:52:12.376Z,13.80
2019-03-05T12:54:39.320Z,13.80
2019-03-05T12:57:05.925Z,14.00
2019-03-05T12:59:33.211Z,13.40
2019-03-05T13:02:00.163Z,12.90
2019-03-05T13:04:26.761Z,12.70
2019-03-05T13:06:53.637Z,12.70
2019-03-05T13:09:20.983Z,12.40
2019-03-05T13:11:49.869Z,12.70
2019-03-05T13:14:16.724Z,13.10
2019-03-05T13:16:43.663Z,13.30
2019-03-05T13:19:10.992Z,13.60
2019-03-05T13:21:38.069Z,12.40
2019-03-05T13:24:05.020Z,11.90
2019-03-05T13:26:32.446Z,11.50
2019-03-05T13:28:59.320Z,11.50
2019-03-05T13:31:26.272Z,11.80
2019-03-05T13:33:53.207Z,11.70
2019-03-05T13:36:19.794Z,11.50
2019-03-05T13:38:46.460Z,11.50
2019-03-05T13:41:15.749Z,10.70
2019-03-05T13:43:42.121Z,10.40
2019-03-05T13:46:09.067Z,10.10
2019-03-05T13:48:58.300Z,10.00
2019-03-05T13:51:26.667Z,9.70
2019-03-05T13:54:01.030Z,9.60
2019-03-05T13:56:48.161Z,9.50
2019-03-05T13:59:38.344Z,9.40
2019-03-05T14:02:06.650Z,9.30
2019-03-05T14:04:42.876Z,9.20
2019-03-05T14:07:32.699Z,9.10
2019-03-05T14:09:59.618Z,8.90
2019-03-05T14:12:26.223Z,8.70
2019-03-05T14:14:53.200Z,8.60
2019-03-05T14:17:23.477Z,8.50
2019-03-05T14:19:50.389Z,8.10
2019-03-05T14:22:17.312Z,8.00
2019-03-05T14:24:44.261Z,8.00
2019-03-05T14:27:11.214Z,8.00
2019-03-05T14:29:38.150Z,8.00
2019-03-05T14:32:05.436Z,8.00
2019-03-05T14:34:32.378Z,8.00
2019-03-05T14:36:59.004Z,7.80
2019-03-05T14:39:32.054Z,7.80
2019-03-05T14:41:59.748Z,7.70
2019-03-05T14:44:26.702Z,7.80
2019-03-05T14:46:55.617Z,7.80
2019-03-05T14:49:22.344Z,7.90
2019-03-05T14:51:48.889Z,7.70
2019-03-05T14:54:15.391Z,7.60
2019-03-05T14:56:42.368Z,7.60
2019-03-05T14:59:09.325Z,7.50
2019-03-05T15:01:35.919Z,7.30
2019-03-05T15:04:02.867Z,7.40
2019-03-05T15:06:29.562Z,7.50
2019-03-05T15:08:56.465Z,7.60
2019-03-05T15:11:23.071Z,7.70
2019-03-05T15:13:50.043Z,7.70
2019-03-05T15:16:16.562Z,7.70
2019-03-05T15:18:43.195Z,7.70
2019-03-05T15:21:10.068Z,7.70
2019-03-05T15:23:37.150Z,7.60
2019-03-05T15:26:04.159Z,7.50
2019-03-05T15:28:31.143Z,7.50
2019-03-05T15:30:58.046Z,7.40
2019-03-05T15:33:24.922Z,7.40
2019-03-05T15:35:51.504Z,7.30
2019-03-05T15:38:18.301Z,7.10
2019-03-05T15:40:45.460Z,7.00
2019-03-05T15:43:12.060Z,6.90
2019-03-05T15:45:38.907Z,6.90
2019-03-05T15:48:05.890Z,6.90
2019-03-05T15:50:32.467Z,6.90
2019-03-05T15:52:59.445Z,6.90
2019-03-05T15:55:26.376Z,6.90
2019-03-05T15:57:53.319Z,6.90
2019-03-05T16:00:27.022Z,7.00
2019-03-05T16:02:53.981Z,7.10
2019-03-05T16:05:22.069Z,7.10
2019-03-05T16:07:49.320Z,7.10
2019-03-05T16:10:17.224Z,7.10
2019-03-05T16:12:44.842Z,7.00
2019-03-05T16:15:13.228Z,6.90
2019-03-05T16:17:39.861Z,6.80
2019-03-05T16:20:18.878Z,6.60
2019-03-05T16:22:45.927Z,6.70
2019-03-05T16:25:22.299Z,6.70
2019-03-05T16:27:48.890Z,6.70
2019-03-05T16:30:42.199Z,6.70
2019-03-05T16:33:23.800Z,6.60
2019-03-05T16:36:08.802Z,6.50
2019-03-05T16:38:51.240Z,6.50
2019-03-05T16:41:31.324Z,6.40
2019-03-05T16:44:16.383Z,6.30
2019-03-05T16:46:45.182Z,6.20
2019-03-05T16:49:31.718Z,6.20
2019-03-05T16:52:03.448Z,6.20
2019-03-05T16:54:48.262Z,6.10
2019-03-05T16:57:28.721Z,6.10
2019-03-05T16:59:59.847Z,6.00
2019-03-05T17:02:34.750Z,5.90
2019-03-05T17:05:15.312Z,5.90
2019-03-05T17:07:55.876Z,5.80
2019-03-05T17:10:35.944Z,5.80
2019-03-05T17:13:02.603Z,5.80
2019-03-05T17:15:29.518Z,5.70
2019-03-05T17:17:56.140Z,5.70
2019-03-05T17:20:23.106Z,5.60
2019-03-05T17:22:49.791Z,5.60
2019-03-05T17:25:19.755Z,5.50
2019-03-05T17:27:46.254Z,5.50
2019-03-05T17:30:14.871Z,5.50
2019-03-05T17:32:41.509Z,5.40
2019-03-05T17:35:09.179Z,5.30
2019-03-05T17:37:35.838Z,5.30
2019-03-05T17:40:04.718Z,5.20
2019-03-05T17:42:31.322Z,5.20
2019-03-05T17:44:57.955Z,5.00
2019-03-05T17:47:25.515Z,5.00
2019-03-05T17:49:52.157Z,4.90
2019-03-05T17:52:19.444Z,4.80
2019-03-05T17:54:45.958Z,4.60
2019-03-05T17:57:12.823Z,4.50
2019-03-05T17:59:39.467Z,4.40
2019-03-05T18:02:06.402Z,4.30
2019-03-05T18:04:33.391Z,4.20
2019-03-05T18:07:00.505Z,4.20
2019-03-05T18:09:27.023Z,4.10
2019-03-05T18:11:53.607Z,4.20
2019-03-05T18:14:20.242Z,4.20
2019-03-05T18:16:47.495Z,4.20
2019-03-05T18:19:14.089Z,4.30
2019-03-05T18:21:40.895Z,4.20
2019-03-05T18:24:07.614Z,4.30
2019-03-05T18:26:34.645Z,4.30
2019-03-05T18:29:01.598Z,4.20
2019-03-05T18:31:28.273Z,4.20
2019-03-05T18:33:55.185Z,4.10
2019-03-05T18:36:22.218Z,4.00
2019-03-05T18:38:49.175Z,3.90
2019-03-05T18:41:15.782Z,3.90
2019-03-05T18:43:42.696Z,3.90
2019-03-05T18:46:10.765Z,3.90
2019-03-05T18:48:37.674Z,3.90
2019-03-05T18:51:04.285Z,3.80
2019-03-05T18:53:30.940Z,3.80
2019-03-05T18:55:58.209Z,3.80
2019-03-05T18:58:24.847Z,3.70
2019-03-05T19:00:51.791Z,3.60
2019-03-05T19:03:19.210Z,3.50
2019-03-05T19:05:46.399Z,3.40
2019-03-05T19:08:13.020Z,3.30
2019-03-05T19:10:39.577Z,3.30
2019-03-05T19:13:06.099Z,3.30
2019-03-05T19:15:33.133Z,3.20
2019-03-05T19:18:00.633Z,3.10
2019-03-05T19:20:31.613Z,3.10
2019-03-05T19:22:59.834Z,3.00
2019-03-05T19:25:33.178Z,3.00
2019-03-05T19:27:59.876Z,2.90
2019-03-05T19:30:29.563Z,2.90
2019-03-05T19:32:56.527Z,2.80
2019-03-05T19:35:23.684Z,2.80
2019-03-05T19:37:50.631Z,2.80
2019-03-05T19:40:20.266Z,2.70
2019-03-05T19:42:47.370Z,2.70
2019-03-05T19:45:16.076Z,2.70
2019-03-05T19:47:43.113Z,2.60
2019-03-05T19:50:18.983Z,2.60
2019-03-05T19:52:45.823Z,2.70
2019-03-05T19:55:16.870Z,2.70
2019-03-05T19:57:43.502Z,2.70
2019-03-05T20:00:35.903Z,2.70
2019-03-05T20:03:03.199Z,2.70
2019-03-05T20:05:30.114Z,2.60
2019-03-05T20:07:56.993Z,2.50
2019-03-05T20:10:29.515Z,2.50
2019-03-05T20:12:56.407Z,2.50
2019-03-05T20:15:23.460Z,2.50
2019-03-05T20:17:58.720Z,2.40
2019-03-05T20:20:18.801Z,2.40
2019-03-05T20:22:45.442Z,2.40
2019-03-05T20:25:15.252Z,2.30
2019-03-05T20:27:42.198Z,2.30
2019-03-05T20:30:20.592Z,2.30
2019-03-05T20:32:47.292Z,2.20
2019-03-05T20:35:14.997Z,2.30
2019-03-05T20:37:41.849Z,2.20
2019-03-05T20:40:11.647Z,2.30
2019-03-05T20:42:38.607Z,2.20
2019-03-05T20:45:26.027Z,2.20
2019-03-05T20:47:52.976Z,2.20
2019-03-05T20:50:19.579Z,2.20
2019-03-05T20:52:46.620Z,2.20
2019-03-05T20:55:18.565Z,2.20
2019-03-05T20:57:45.287Z,2.20
2019-03-05T21:02:50.139Z,2.20
2019-03-05T21:05:16.773Z,2.10
2019-03-05T21:07:43.579Z,2.10
2019-03-05T21:10:10.645Z,2.10
2019-03-05T21:12:37.246Z,2.10
2019-03-05T21:15:07.459Z,2.10
2019-03-05T21:17:34.768Z,2.00
2019-03-05T21:20:01.615Z,2.00
2019-03-05T21:22:28.545Z,2.00
2019-03-05T21:24:55.488Z,2.00
2019-03-05T21:27:22.756Z,2.00
2019-03-05T21:29:49.755Z,1.90
2019-03-05T21:32:16.448Z,1.90
2019-03-05T21:34:43.389Z,1.90
2019-03-05T21:37:10.635Z,1.80
2019-03-05T21:39:37.282Z,1.90
2019-03-05T21:42:03.877Z,1.80
2019-03-05T21:44:30.473Z,1.80
2019-03-05T21:46:57.394Z,1.80
2019-03-05T21:49:24.350Z,1.70
2019-03-05T21:51:51.395Z,1.70
2019-03-05T21:54:18.914Z,1.70
2019-03-05T21:56:45.993Z,1.60
2019-03-05T21:59:12.846Z,1.70
2019-03-05T22:01:39.791Z,1.60
2019-03-05T22:04:06.738Z,1.50
2019-03-05T22:06:33.990Z,1.40
2019-03-05T22:09:01.042Z,1.40
2019-03-05T22:11:27.986Z,1.30
2019-03-05T22:13:55.261Z,1.20
2019-03-05T22:16:21.954Z,1.30
2019-03-05T22:18:48.923Z,1.30
2019-03-05T22:21:15.874Z,1.30
2019-03-05T22:23:42.470Z,1.30
2019-03-05T22:26:09.766Z,1.30
2019-03-05T22:28:36.680Z,1.30
2019-03-05T22:31:04.575Z,1.20
2019-03-05T22:33:31.632Z,1.20
2019-03-05T22:35:58.582Z,1.20
2019-03-05T22:38:25.515Z,1.20
2019-03-05T22:40:52.129Z,1.10
2019-03-05T22:43:18.764Z,1.00
2019-03-05T22:45:45.941Z,1.10
2019-03-05T22:48:12.888Z,1.10
2019-03-05T22:50:39.838Z,1.00
2019-03-05T22:53:06.793Z,1.00
2019-03-05T22:55:33.603Z,0.90
2019-03-05T22:58:00.205Z,0.90
2019-03-05T23:00:38.399Z,0.80
2019-03-05T23:03:07.822Z,0.70
2019-03-05T23:05:34.609Z,0.70
2019-03-05T23:08:01.773Z,0.70
2019-03-05T23:10:28.372Z,0.60
2019-03-05T23:12:55.105Z,0.60
2019-03-05T23:15:22.818Z,0.60
2019-03-05T23:17:49.517Z,0.60
2019-03-05T23:20:17.006Z,0.50
2019-03-05T23:22:43.869Z,0.50
2019-03-05T23:25:13.242Z,0.50
2019-03-05T23:27:41.978Z,0.40
2019-03-05T23:30:13.922Z,0.30
2019-03-05T23:32:40.858Z,0.40
2019-03-05T23:35:09.700Z,0.40
2019-03-05T23:37:37.737Z,0.40
2019-03-05T23:40:07.151Z,0.50
2019-03-05T23:42:34.077Z,0.40
2019-03-05T23:45:01.137Z,0.40
2019-03-05T23:47:28.371Z,0.50
2019-03-05T23:49:55.322Z,0.40
2019-03-05T23:52:22.373Z,0.40
2019-03-05T23:54:49.328Z,0.40
2019-03-05T23:57:16.362Z,0.40
2019-03-05T23:59:43.002Z,0.40
